Time;durP1;ratioP1;P1;durP2;ratioP2;P2;SDS_P1;SDS_P2;PMS_P1;PMS_P2;Temp;Humidity;BMP_temperature;BMP_pressure;BME280_temperature;BME280_humidity;BME280_pressure;Samples;Min_cycle;Max_cycle;Signal;HPM_P1;HPM_P2
2023/11/24 00:01:20;;;;;;;8.63;5.43;;;13.40;73.00;;;;;;5054936;28;20471;-85
2023/11/24 00:03:46;;;;;;;10.95;5.22;;;13.30;72.90;;;;;;5054971;28;20041;-88
2023/11/24 00:06:12;;;;;;;8.52;5.25;;;13.30;73.00;;;;;;5053975;28;20040;-87
2023/11/24 00:08:38;;;;;;;8.35;6.07;;;13.30;73.10;;;;;;5054377;28;20079;-87
2023/11/24 00:11:04;;;;;;;14.38;5.88;;;13.20;73.10;;;;;;5054660;28;20109;-85
2023/11/24 00:13:30;;;;;;;8.93;5.53;;;13.20;73.10;;;;;;5073826;28;20076;-86
2023/11/24 00:15:56;;;;;;;8.85;5.30;;;13.20;73.20;;;;;;5075766;28;20410;-85
2023/11/24 00:18:22;;;;;;;8.60;5.38;;;13.10;73.90;;;;;;5069643;28;20155;-85
2023/11/24 00:20:47;;;;;;;7.88;5.55;;;13.20;73.20;;;;;;5054661;28;20080;-86
2023/11/24 00:23:13;;;;;;;11.02;5.35;;;13.20;73.40;;;;;;5055139;28;20052;-86
2023/11/24 00:25:39;;;;;;;8.88;5.55;;;13.20;73.50;;;;;;5054694;28;20386;-86
2023/11/24 00:28:05;;;;;;;10.68;6.40;;;13.10;73.40;;;;;;5054649;28;20394;-86
2023/11/24 00:30:32;;;;;;;10.55;5.93;;;13.10;74.20;;;;;;5065092;28;20109;-86
2023/11/24 00:32:58;;;;;;;9.68;5.88;;;13.10;73.60;;;;;;5077018;28;20563;-85
2023/11/24 00:35:24;;;;;;;8.10;5.00;;;13.00;73.60;;;;;;5077404;28;20056;-87
2023/11/24 00:37:49;;;;;;;9.30;5.57;;;13.00;73.80;;;;;;5079946;28;20051;-85
2023/11/24 00:40:18;;;;;;;9.18;5.63;;;13.00;73.70;;;;;;5075153;28;20048;-86
2023/11/24 00:42:44;;;;;;;9.55;5.82;;;13.10;73.70;;;;;;5073427;28;20048;-85
2023/11/24 00:45:11;;;;;;;8.10;5.90;;;13.10;73.60;;;;;;5076294;28;20067;-85
2023/11/24 00:47:36;;;;;;;8.68;5.60;;;13.10;73.70;;;;;;5074381;28;20037;-85
2023/11/24 00:50:05;;;;;;;11.05;5.85;;;13.00;73.70;;;;;;5073773;28;20052;-85
2023/11/24 00:52:31;;;;;;;10.32;5.85;;;13.00;74.00;;;;;;5073305;28;20033;-86
2023/11/24 00:54:57;;;;;;;8.13;5.18;;;13.00;74.00;;;;;;5092798;28;20047;-80
2023/11/24 11:56:19;;;;;;;15.98;9.10;;;18.30;70.40;;;;;;5083127;28;20630;-74
2023/11/24 11:58:45;;;;;;;16.80;9.82;;;18.50;70.10;;;;;;5004804;28;20157;-76
2023/11/24 12:01:13;;;;;;;18.50;9.55;;;18.80;69.10;;;;;;5015985;28;20460;-75
2023/11/24 12:03:39;;;;;;;16.70;9.27;;;18.80;68.80;;;;;;5014251;28;20094;-78
2023/11/24 12:06:06;;;;;;;20.08;9.10;;;18.80;68.80;;;;;;5017794;28;20436;-77
2023/11/24 12:08:42;;;;;;;17.33;8.35;;;18.80;68.60;;;;;;5022151;28;20116;-81
2023/11/24 12:11:10;;;;;;;15.13;9.13;;;18.80;69.10;;;;;;5037849;28;20067;-73
2023/11/24 12:13:37;;;;;;;14.82;8.50;;;18.80;68.70;;;;;;5022260;28;20415;-75
2023/11/24 12:16:04;;;;;;;16.25;9.18;;;18.80;68.80;;;;;;5069954;28;20033;-79
2023/11/24 12:18:30;;;;;;;14.68;8.00;;;18.70;68.70;;;;;;5086577;28;20056;-80
2023/11/24 12:20:56;;;;;;;15.00;9.18;;;18.80;68.90;;;;;;5073784;28;20110;-80
2023/11/24 12:23:23;;;;;;;16.38;9.07;;;18.80;69.00;;;;;;5073040;28;20098;-77
2023/11/24 12:25:50;;;;;;;16.60;9.18;;;18.70;69.00;;;;;;5072992;28;20067;-77
2023/11/24 12:28:16;;;;;;;17.20;9.20;;;18.70;69.20;;;;;;5072891;28;20068;-74
2023/11/24 12:30:43;;;;;;;17.13;8.57;;;18.70;69.30;;;;;;5072531;28;20060;-76
2023/11/24 12:33:20;;;;;;;12.77;7.90;;;18.70;69.30;;;;;;5054880;28;20409;-76
2023/11/24 12:35:50;;;;;;;15.95;7.30;;;18.60;69.90;;;;;;5072834;28;20032;-76
2023/11/24 12:38:16;;;;;;;13.00;6.95;;;18.60;69.40;;;;;;5072594;28;20387;-77
2023/11/24 12:40:45;;;;;;;13.35;8.05;;;18.50;69.60;;;;;;5072797;28;20036;-76
2023/11/24 12:43:12;;;;;;;14.05;8.05;;;18.40;69.40;;;;;;5072866;28;20409;-76
2023/11/24 12:45:42;;;;;;;16.67;8.10;;;18.40;69.60;;;;;;5043811;28;20029;-76
2023/11/24 12:48:24;;;;;;;25.25;8.57;;;18.30;69.80;;;;;;5033036;28;20099;-76
2023/11/24 12:50:53;;;;;;;12.63;8.15;;;18.20;69.70;;;;;;5033433;28;20574;-76
2023/11/24 12:53:20;;;;;;;16.25;8.10;;;18.10;69.80;;;;;;5015583;28;20029;-76
2023/11/24 12:55:45;;;;;;;17.40;8.15;;;18.10;70.10;;;;;;5031935;28;20368;-77
2023/11/24 12:58:11;;;;;;;17.42;7.88;;;18.20;70.30;;;;;;5038541;28;20136;-76
2023/11/24 13:00:37;;;;;;;11.77;7.70;;;18.10;70.40;;;;;;5060878;28;20033;-75
2023/11/24 13:03:05;;;;;;;15.35;7.88;;;18.20;70.40;;;;;;5061540;28;20442;-76
2023/11/24 13:05:31;;;;;;;15.15;7.93;;;18.10;70.50;;;;;;5034289;28;20372;-75
2023/11/24 13:07:56;;;;;;;14.38;7.03;;;18.10;70.50;;;;;;5052420;28;20044;-75
2023/11/24 13:10:23;;;;;;;15.30;7.78;;;18.20;70.60;;;;;;5052375;28;20028;-76
2023/11/24 13:12:49;;;;;;;15.35;7.40;;;18.20;70.70;;;;;;5059239;22;20053;-76
2023/11/24 13:15:15;;;;;;;14.38;7.30;;;18.20;70.80;;;;;;5052234;28;20040;-75
2023/11/24 13:17:41;;;;;;;16.88;7.40;;;18.20;71.10;;;;;;5050535;28;20158;-77
2023/11/24 13:20:11;;;;;;;15.73;7.68;;;18.20;71.00;;;;;;5050126;28;20098;-77
2023/11/24 13:22:38;;;;;;;15.48;7.28;;;18.20;70.90;;;;;;5039459;28;20037;-75
2023/11/24 13:25:05;;;;;;;13.95;8.07;;;18.20;70.90;;;;;;5028907;28;20151;-75
2023/11/24 13:27:33;;;;;;;14.63;7.15;;;18.30;71.10;;;;;;5031269;28;20068;-78
2023/11/24 13:29:59;;;;;;;15.98;7.40;;;18.30;70.90;;;;;;5029475;28;20194;-75
2023/11/24 13:32:25;;;;;;;12.70;6.72;;;18.30;71.00;;;;;;5013035;28;20060;-81
2023/11/24 13:34:51;;;;;;;12.23;7.03;;;18.30;71.20;;;;;;5013652;28;20041;-80
2023/11/24 13:37:20;;;;;;;11.73;6.70;;;18.30;71.10;;;;;;5013563;28;20085;-78
2023/11/24 13:39:45;;;;;;;12.65;7.25;;;18.40;71.00;;;;;;5013499;28;20033;-77
2023/11/24 13:42:16;;;;;;;15.27;7.40;;;18.30;71.10;;;;;;4994881;28;20033;-75
2023/11/24 13:44:42;;;;;;;14.30;7.80;;;18.40;71.80;;;;;;5007786;28;20394;-78
2023/11/24 13:47:07;;;;;;;14.43;7.38;;;18.40;71.10;;;;;;5013997;28;20033;-77
2023/11/24 13:49:37;;;;;;;11.90;6.47;;;18.40;71.10;;;;;;5013059;28;20106;-76
2023/11/24 13:52:03;;;;;;;16.33;7.72;;;18.50;71.10;;;;;;5012376;28;20544;-77
2023/11/24 13:54:29;;;;;;;18.58;7.60;;;18.50;71.30;;;;;;5015778;28;20044;-74
2023/11/24 13:56:55;;;;;;;12.82;7.00;;;18.50;71.10;;;;;;5013864;28;20037;-77
2023/11/24 13:59:21;;;;;;;12.23;6.63;;;18.50;71.40;;;;;;5031673;28;20052;-76
2023/11/24 14:01:48;;;;;;;18.13;7.72;;;18.50;71.40;;;;;;5032583;28;20482;-76
2023/11/24 14:04:14;;;;;;;14.45;7.95;;;18.60;71.50;;;;;;5032630;28;20072;-77
2023/11/24 14:06:43;;;;;;;17.73;7.43;;;18.70;71.50;;;;;;5034979;28;20072;-75
2023/11/24 14:09:17;;;;;;;14.70;6.28;;;18.70;71.30;;;;;;5045905;28;20037;-75
2023/11/24 14:11:47;;;;;;;16.80;7.55;;;18.80;72.20;;;;;;5022678;28;20667;-77
2023/11/24 14:14:14;;;;;;;12.40;6.65;;;18.80;71.70;;;;;;5056992;28;20124;-76
2023/11/24 14:16:41;;;;;;;15.30;7.38;;;18.70;71.90;;;;;;5038013;28;20153;-77
2023/11/24 14:19:09;;;;;;;14.13;7.13;;;18.70;72.00;;;;;;5056546;28;20363;-77
2023/11/24 14:21:36;;;;;;;13.02;7.00;;;18.70;72.70;;;;;;5056035;28;20028;-75
2023/11/24 14:24:04;;;;;;;13.35;7.38;;;18.60;72.90;;;;;;5056282;28;20047;-76
2023/11/24 14:26:36;;;;;;;16.90;8.68;;;18.60;73.00;;;;;;5056839;28;20549;-77
2023/11/24 14:29:04;;;;;;;13.77;8.93;;;18.70;73.10;;;;;;5055529;28;20032;-77
2023/11/24 14:31:33;;;;;;;20.02;8.95;;;18.70;72.90;;;;;;5056064;28;20468;-76
2023/11/24 14:34:00;;;;;;;18.50;10.75;;;18.70;73.20;;;;;;5055496;28;20039;-77
2023/11/24 14:36:29;;;;;;;18.38;8.15;;;18.70;73.30;;;;;;5055338;28;20032;-76
2023/11/24 14:38:58;;;;;;;17.15;9.10;;;18.60;73.60;;;;;;5037199;28;20056;-76
2023/11/24 14:41:25;;;;;;;18.55;9.05;;;18.60;73.70;;;;;;5056105;28;20032;-76
2023/11/24 14:43:55;;;;;;;21.35;8.80;;;18.60;74.00;;;;;;5050523;28;20323;-77
2023/11/24 14:46:21;;;;;;;17.63;8.80;;;18.60;74.40;;;;;;5037826;28;20067;-77
2023/11/24 14:48:50;;;;;;;16.45;9.50;;;18.50;74.50;;;;;;5037520;28;20585;-78
2023/11/24 14:51:17;;;;;;;19.23;10.48;;;18.50;74.50;;;;;;5036988;28;20392;-77
2023/11/24 14:53:46;;;;;;;15.82;8.85;;;18.50;74.60;;;;;;5055661;28;20037;-78
2023/11/24 14:56:15;;;;;;;16.05;8.23;;;18.40;74.80;;;;;;5054757;28;20048;-74
2023/11/24 14:58:45;;;;;;;19.70;8.02;;;18.50;74.70;;;;;;5054604;28;20112;-76
2023/11/24 15:01:19;;;;;;;17.15;8.10;;;18.40;75.20;;;;;;5038114;28;20090;-75
2023/11/24 15:03:47;;;;;;;17.77;8.25;;;18.40;75.20;;;;;;5076910;28;20056;-77
2023/11/24 15:06:21;;;;;;;19.70;8.23;;;18.40;74.90;;;;;;5054941;28;20028;-77
2023/11/24 15:08:49;;;;;;;19.58;8.38;;;18.40;75.20;;;;;;5074561;28;20079;-75
2023/11/24 15:11:17;;;;;;;13.35;7.43;;;18.40;75.10;;;;;;5055053;28;20440;-77
2023/11/24 15:13:44;;;;;;;16.40;7.90;;;18.30;75.00;;;;;;5056342;28;20047;-77
2023/11/24 15:16:17;;;;;;;22.60;9.65;;;18.30;75.40;;;;;;5055974;28;20112;-76
2023/11/24 15:18:47;;;;;;;25.98;8.52;;;18.30;75.60;;;;;;5055136;28;20037;-76
2023/11/24 15:21:28;;;;;;;20.85;9.30;;;18.20;75.50;;;;;;5068764;28;20158;-79
2023/11/24 15:23:54;;;;;;;19.98;9.30;;;18.00;75.90;;;;;;5066725;28;20882;-75
2023/11/24 15:26:24;;;;;;;16.70;8.20;;;18.00;75.70;;;;;;5087504;28;20028;-76
2023/11/24 15:28:56;;;;;;;16.17;8.23;;;18.00;76.10;;;;;;5083210;28;20524;-77
2023/11/24 15:31:26;;;;;;;15.57;8.07;;;17.90;75.80;;;;;;5073299;28;20504;-72
2023/11/24 15:33:53;;;;;;;26.40;8.43;;;17.80;76.00;;;;;;5056011;28;20036;-76
2023/11/24 15:36:26;;;;;;;15.52;8.50;;;17.90;76.20;;;;;;5055723;28;20106;-79
2023/11/24 15:38:55;;;;;;;16.52;7.82;;;17.80;76.20;;;;;;5072524;28;20122;-78
2023/11/24 15:41:29;;;;;;;19.95;9.02;;;17.80;76.30;;;;;;5074179;28;20041;-75
2023/11/24 15:43:55;;;;;;;;;;;17.70;76.20;;;;;;5068936;28;20045;-76
2023/11/24 15:46:29;;;;;;;15.13;8.35;;;17.70;76.40;;;;;;5086413;28;19911;-75
2023/11/24 15:48:56;;;;;;;15.55;8.43;;;17.60;76.70;;;;;;5085602;28;20073;-76
2023/11/24 15:51:22;;;;;;;15.32;7.68;;;17.60;76.80;;;;;;5073014;28;20039;-76
2023/11/24 15:53:52;;;;;;;17.65;7.63;;;17.50;77.10;;;;;;5068058;28;20028;-77
2023/11/24 15:56:23;;;;;;;14.35;7.00;;;17.50;77.30;;;;;;5038577;28;20032;-76
2023/11/24 15:58:52;;;;;;;19.73;8.10;;;17.50;77.50;;;;;;5073206;28;20397;-76
2023/11/24 16:01:21;;;;;;;15.27;7.72;;;17.50;77.60;;;;;;5073259;28;20508;-77
2023/11/24 16:03:48;;;;;;;18.33;9.48;;;17.40;77.70;;;;;;5073658;28;20506;-77
2023/11/24 16:06:19;;;;;;;16.88;8.90;;;17.40;77.80;;;;;;5039172;28;20064;-78
2023/11/24 16:08:52;;;;;;;18.60;8.68;;;17.30;77.70;;;;;;5055448;28;20520;-78
2023/11/24 16:11:24;;;;;;;13.10;7.20;;;17.30;78.30;;;;;;5055658;28;20075;-77
2023/11/24 16:13:50;;;;;;;17.38;8.23;;;17.20;78.30;;;;;;5055931;28;20052;-76
2023/11/24 16:16:16;;;;;;;17.40;8.43;;;17.20;78.60;;;;;;5073812;28;20030;-78
2023/11/24 16:18:43;;;;;;;15.85;9.73;;;17.20;78.50;;;;;;5056083;28;20048;-77
2023/11/24 16:21:09;;;;;;;12.75;8.95;;;17.20;78.90;;;;;;5073624;28;20501;-77
2023/11/24 16:23:35;;;;;;;14.18;9.23;;;17.10;78.80;;;;;;5073076;28;20506;-76
2023/11/24 16:26:01;;;;;;;14.93;8.57;;;17.10;78.70;;;;;;5072991;28;20077;-78
2023/11/24 16:28:27;;;;;;;22.00;11.82;;;17.10;78.90;;;;;;5072858;28;20033;-77
2023/11/24 16:30:54;;;;;;;14.75;9.30;;;17.10;79.10;;;;;;5072578;28;20044;-78
2023/11/24 16:33:20;;;;;;;63.75;39.25;;;17.10;79.30;;;;;;5072676;28;20142;-76
2023/11/24 16:35:47;;;;;;;38.08;22.98;;;17.00;79.50;;;;;;5055079;28;20064;-78
2023/11/24 16:38:14;;;;;;;22.55;15.68;;;17.00;79.70;;;;;;5055109;28;20048;-76
2023/11/24 16:40:40;;;;;;;26.30;15.35;;;17.00;79.90;;;;;;5073013;28;20029;-78
2023/11/24 16:43:06;;;;;;;25.13;11.13;;;17.00;79.90;;;;;;5055145;28;20094;-77
2023/11/24 16:45:35;;;;;;;18.73;9.68;;;17.00;80.00;;;;;;5072778;28;20040;-77
2023/11/24 16:48:01;;;;;;;18.67;9.52;;;17.00;80.20;;;;;;5073124;28;20029;-79
2023/11/24 16:50:26;;;;;;;16.83;9.38;;;17.00;80.30;;;;;;5072850;28;20123;-79
2023/11/24 16:52:52;;;;;;;17.02;9.25;;;17.00;80.70;;;;;;5072423;28;20481;-77
2023/11/24 16:55:18;;;;;;;16.42;8.75;;;17.00;80.80;;;;;;5072540;28;20082;-77
2023/11/24 16:57:44;;;;;;;15.85;8.93;;;17.00;80.70;;;;;;5072408;28;20035;-76
2023/11/24 17:00:11;;;;;;;21.65;8.05;;;17.00;80.90;;;;;;5054259;28;20063;-77
2023/11/24 17:02:36;;;;;;;15.55;8.02;;;17.00;81.10;;;;;;5054411;28;20048;-77
2023/11/24 17:05:03;;;;;;;17.40;8.15;;;17.10;81.30;;;;;;5072268;28;20426;-76
2023/11/24 17:07:29;;;;;;;18.02;8.00;;;17.00;81.50;;;;;;5072727;28;20083;-76
2023/11/24 17:09:56;;;;;;;15.20;8.02;;;17.10;81.90;;;;;;5072523;28;20029;-78
2023/11/24 17:12:24;;;;;;;18.17;8.75;;;17.10;82.00;;;;;;5054331;28;20497;-77
2023/11/24 17:14:50;;;;;;;20.00;8.02;;;17.10;82.20;;;;;;5072589;28;20052;-77
2023/11/24 17:17:16;;;;;;;14.23;6.95;;;17.10;82.50;;;;;;5071870;28;20032;-77
2023/11/24 17:19:43;;;;;;;17.92;7.68;;;17.10;82.70;;;;;;5054487;28;20123;-77
2023/11/24 17:22:09;;;;;;;18.20;8.48;;;17.10;82.70;;;;;;5072356;28;20492;-76
2023/11/24 17:24:35;;;;;;;19.73;10.55;;;17.10;82.90;;;;;;5072405;28;20048;-77
2023/11/24 17:27:01;;;;;;;24.52;8.98;;;17.10;83.10;;;;;;5054281;28;20040;-77
2023/11/24 17:29:26;;;;;;;20.63;9.80;;;17.10;83.20;;;;;;5072184;28;20500;-76
2023/11/24 17:31:53;;;;;;;21.05;9.95;;;17.10;83.40;;;;;;5054377;28;20044;-79
2023/11/24 17:34:19;;;;;;;19.90;9.98;;;17.10;83.60;;;;;;5072326;28;20045;-77
2023/11/24 17:36:45;;;;;;;19.70;9.45;;;17.10;83.80;;;;;;5072135;28;20032;-76
2023/11/24 17:39:12;;;;;;;19.10;10.07;;;17.10;84.00;;;;;;5071803;28;20154;-77
2023/11/24 17:41:39;;;;;;;23.88;10.82;;;17.00;84.00;;;;;;5056566;28;20543;-77
2023/11/24 17:44:11;;;;;;;21.00;10.25;;;17.00;84.20;;;;;;5076320;28;20055;-77
2023/11/24 17:46:40;;;;;;;17.40;10.27;;;16.90;84.60;;;;;;5076422;28;20024;-77
2023/11/24 17:49:06;;;;;;;17.65;9.20;;;16.90;84.60;;;;;;5076002;28;20440;-76
2023/11/24 17:51:32;;;;;;;18.27;9.05;;;16.80;84.80;;;;;;5075826;28;20040;-76
2023/11/24 17:54:01;;;;;;;17.50;9.18;;;16.80;85.00;;;;;;5057857;28;20040;-76
2023/11/24 17:56:28;;;;;;;19.30;8.80;;;16.70;85.10;;;;;;5075798;28;20082;-75
2023/11/24 17:58:56;;;;;;;13.60;7.85;;;16.70;85.40;;;;;;5075721;28;20048;-77
2023/11/24 18:01:23;;;;;;;18.98;8.25;;;16.60;85.50;;;;;;5076480;28;20048;-76
2023/11/24 18:03:49;;;;;;;20.42;8.38;;;16.60;85.50;;;;;;5075763;28;20106;-75
2023/11/24 18:06:15;;;;;;;16.05;8.65;;;16.60;86.40;;;;;;5075785;28;20051;-74
2023/11/24 18:08:41;;;;;;;18.17;8.95;;;16.60;86.00;;;;;;5075529;28;20064;-75
2023/11/24 18:11:07;;;;;;;17.52;8.75;;;16.60;86.20;;;;;;5075768;28;20557;-75
2023/11/24 18:13:33;;;;;;;24.80;9.65;;;16.60;86.20;;;;;;5075905;28;20121;-74
2023/11/24 18:15:59;;;;;;;18.35;10.57;;;16.50;86.30;;;;;;5075889;28;20028;-76
2023/11/24 18:18:24;;;;;;;25.45;11.43;;;16.50;86.40;;;;;;5075636;28;20090;-76
2023/11/24 18:20:50;;;;;;;20.08;10.48;;;16.50;86.80;;;;;;5075719;28;20078;-77
2023/11/24 18:23:16;;;;;;;22.38;11.88;;;16.50;86.70;;;;;;5075902;28;20056;-75
2023/11/24 18:25:42;;;;;;;21.27;11.25;;;16.50;86.70;;;;;;5076387;28;20424;-76
2023/11/24 18:28:08;;;;;;;22.00;10.70;;;16.60;87.00;;;;;;5057833;28;20191;-75
2023/11/24 18:30:37;;;;;;;28.70;11.88;;;16.60;87.30;;;;;;5075136;28;20033;-75
2023/11/24 18:33:04;;;;;;;17.55;10.02;;;16.60;87.60;;;;;;5075654;28;20037;-76
2023/11/24 18:35:32;;;;;;;21.42;9.77;;;16.60;87.60;;;;;;5075517;28;20035;-76
2023/11/24 18:37:58;;;;;;;20.90;10.35;;;16.60;87.50;;;;;;5075565;28;20051;-77
2023/11/24 18:40:24;;;;;;;19.02;9.45;;;16.60;87.70;;;;;;5075115;28;20029;-77
2023/11/24 18:42:50;;;;;;;22.08;9.65;;;16.60;87.70;;;;;;5075046;28;20045;-75
2023/11/24 18:45:19;;;;;;;27.35;11.50;;;16.60;87.90;;;;;;5075027;28;20039;-77
2023/11/24 18:47:45;;;;;;;22.35;11.02;;;16.60;88.10;;;;;;5075101;28;20037;-76
2023/11/24 18:50:10;;;;;;;22.02;10.80;;;16.60;87.90;;;;;;5075444;28;20111;-77
2023/11/24 18:52:36;;;;;;;18.15;9.82;;;16.60;88.10;;;;;;5073829;28;20060;-76
2023/11/24 18:55:06;;;;;;;25.52;11.45;;;16.70;88.10;;;;;;5075135;28;20028;-77
2023/11/24 18:57:31;;;;;;;16.75;9.63;;;16.70;88.30;;;;;;5074993;28;20064;-78
2023/11/24 18:59:57;;;;;;;23.63;11.40;;;16.70;88.40;;;;;;5075264;28;20419;-77
2023/11/24 19:02:26;;;;;;;24.75;12.32;;;16.70;88.40;;;;;;5074872;28;20040;-75
2023/11/24 19:04:53;;;;;;;23.60;13.15;;;16.70;88.60;;;;;;5074679;28;20075;-79
2023/11/24 19:07:22;;;;;;;22.05;12.57;;;16.70;88.70;;;;;;5074911;28;20120;-79
2023/11/24 19:09:51;;;;;;;19.70;12.52;;;16.70;88.20;;;;;;5081575;28;20038;-79
2023/11/24 19:36:41;;;;;;;28.20;16.85;;;16.60;89.00;;;;;;5042123;28;20050;-82
2023/11/24 19:39:10;;;;;;;30.27;16.40;;;16.50;89.30;;;;;;5087243;28;20051;-81
2023/11/24 19:41:36;;;;;;;23.58;15.40;;;16.50;89.50;;;;;;5074025;28;20028;-81
2023/11/24 19:44:03;;;;;;;32.15;16.00;;;16.50;89.60;;;;;;5074018;28;20041;-84
2023/11/24 19:46:29;;;;;;;26.67;17.30;;;16.50;89.50;;;;;;5073648;28;20141;-83
2023/11/24 19:48:55;;;;;;;24.45;15.63;;;16.50;90.00;;;;;;5073919;28;20064;-82
2023/11/24 19:51:20;;;;;;;27.88;15.65;;;16.50;90.00;;;;;;5074176;28;20033;-82
2023/11/24 19:53:47;;;;;;;30.60;16.20;;;16.50;90.00;;;;;;5075925;28;20497;-81
2023/11/24 19:56:18;;;;;;;26.00;15.55;;;16.50;90.00;;;;;;5075475;28;20544;-82
2023/11/24 19:58:43;;;;;;;29.90;15.75;;;16.50;90.00;;;;;;5075432;28;20509;-82
2023/11/24 20:01:10;;;;;;;24.42;14.45;;;16.50;90.20;;;;;;5074306;28;20037;-82
2023/11/24 20:03:38;;;;;;;24.80;16.30;;;16.50;90.10;;;;;;5088447;28;20126;-83
2023/11/24 20:06:06;;;;;;;25.88;16.00;;;16.50;90.20;;;;;;5093856;28;20032;-82
2023/11/24 20:08:32;;;;;;;30.85;15.73;;;16.50;90.20;;;;;;5092316;28;20115;-85
2023/11/24 20:10:58;;;;;;;24.75;16.35;;;16.60;90.20;;;;;;5093866;28;20053;-82
2023/11/24 20:13:24;;;;;;;27.88;16.00;;;16.50;90.20;;;;;;5092383;28;20111;-84
2023/11/24 20:15:49;;;;;;;29.48;15.32;;;16.50;90.40;;;;;;5096014;28;20059;-83
2023/11/24 20:18:16;;;;;;;24.42;14.60;;;16.50;90.40;;;;;;5097109;28;20035;-76
2023/11/24 20:20:43;;;;;;;26.98;17.02;;;16.50;90.40;;;;;;5094504;28;20430;-87
2023/11/24 20:23:08;;;;;;;25.48;15.00;;;16.40;90.30;;;;;;5094952;28;20118;-81
2023/11/24 20:25:34;;;;;;;26.67;16.80;;;16.40;90.50;;;;;;5099304;28;20052;-85
2023/11/24 20:28:00;;;;;;;24.88;15.82;;;16.30;90.50;;;;;;5098297;28;20556;-85
2023/11/24 20:30:26;;;;;;;27.58;16.83;;;16.30;90.50;;;;;;5095371;28;20083;-84
2023/11/24 20:32:55;;;;;;;23.15;15.52;;;16.30;90.60;;;;;;5093700;28;20032;-83
2023/11/24 20:35:22;;;;;;;22.75;16.08;;;16.30;90.70;;;;;;5096988;28;20032;-85
2023/11/24 20:37:49;;;;;;;27.13;15.80;;;16.30;90.80;;;;;;5093774;28;20048;-84
2023/11/24 20:40:15;;;;;;;28.40;16.73;;;16.30;90.80;;;;;;5093809;28;20123;-79
2023/11/24 20:42:41;;;;;;;29.35;16.55;;;16.30;90.80;;;;;;5093480;28;20036;-84
2023/11/24 20:45:16;;;;;;;34.10;17.13;;;16.30;90.70;;;;;;5092695;28;20093;-84
2023/11/24 20:47:45;;;;;;;28.98;15.80;;;16.30;90.70;;;;;;5092626;28;20119;-85
2023/11/24 20:50:11;;;;;;;25.23;15.30;;;16.30;90.80;;;;;;5093771;28;20035;-84
2023/11/24 20:52:40;;;;;;;26.20;15.35;;;16.30;90.80;;;;;;5094096;28;20032;-85
2023/11/24 20:55:08;;;;;;;24.75;15.25;;;16.30;90.60;;;;;;5093609;28;20032;-84
2023/11/24 20:57:34;;;;;;;24.83;13.85;;;16.40;90.70;;;;;;5094055;28;20055;-86
2023/11/24 21:00:00;;;;;;;27.83;15.32;;;16.40;90.70;;;;;;5092311;28;20443;-87
2023/11/24 21:02:25;;;;;;;26.45;14.55;;;16.40;90.70;;;;;;5094055;28;20032;-86
2023/11/24 21:04:51;;;;;;;28.85;14.10;;;16.50;90.80;;;;;;5093013;28;20039;-84
2023/11/24 21:07:18;;;;;;;24.05;12.75;;;16.40;90.70;;;;;;5094925;28;20028;-85
2023/11/24 21:09:45;;;;;;;23.02;13.98;;;16.40;90.80;;;;;;5094689;28;20516;-84
2023/11/24 21:12:12;;;;;;;26.77;14.55;;;16.40;90.90;;;;;;5095448;28;20485;-82
2023/11/24 21:14:38;;;;;;;29.60;15.20;;;16.40;90.90;;;;;;5094800;28;20067;-79
2023/11/24 21:17:04;;;;;;;23.70;15.40;;;16.30;91.20;;;;;;5085612;28;20029;-82
2023/11/24 21:19:30;;;;;;;26.05;16.10;;;16.10;91.70;;;;;;5093971;28;20039;-83
2023/11/24 21:21:55;;;;;;;24.55;15.70;;;16.00;92.00;;;;;;5093234;28;20032;-83
2023/11/24 21:24:21;;;;;;;26.42;14.85;;;16.00;92.30;;;;;;5092918;28;20420;-83
2023/11/24 21:26:47;;;;;;;24.02;13.70;;;15.90;92.50;;;;;;5094920;28;20031;-82
2023/11/24 21:29:13;;;;;;;19.25;11.43;;;15.90;92.80;;;;;;5097038;28;20032;-83
2023/11/24 21:31:38;;;;;;;21.73;11.13;;;15.80;92.80;;;;;;5104107;28;20089;-83
2023/11/24 21:34:04;;;;;;;17.15;10.68;;;15.80;93.00;;;;;;5091949;28;20060;-85
2023/11/24 21:36:30;;;;;;;18.42;11.70;;;15.90;93.10;;;;;;5082761;28;20509;-83
2023/11/24 21:38:57;;;;;;;17.48;11.98;;;15.90;93.30;;;;;;5076754;28;20515;-84
2023/11/24 21:41:24;;;;;;;19.45;11.45;;;15.80;93.30;;;;;;5092693;28;20031;-84
2023/11/24 21:43:50;;;;;;;17.20;10.40;;;15.90;93.50;;;;;;5086590;28;20048;-84
2023/11/24 21:46:22;;;;;;;17.48;10.38;;;15.90;93.50;;;;;;5071602;28;20037;-84
2023/11/24 21:48:49;;;;;;;19.67;10.30;;;15.90;93.60;;;;;;5072589;28;20047;-85
2023/11/24 21:51:18;;;;;;;19.13;10.25;;;15.90;93.60;;;;;;5072943;28;20036;-85
2023/11/24 21:53:44;;;;;;;21.55;10.93;;;15.90;93.70;;;;;;5072756;28;20036;-85
2023/11/24 21:56:11;;;;;;;13.75;8.88;;;15.90;93.70;;;;;;5072474;28;20064;-87
2023/11/24 21:58:38;;;;;;;16.45;8.98;;;15.80;93.90;;;;;;5083712;28;20031;-84
2023/11/24 22:01:04;;;;;;;35.78;20.67;;;15.80;93.90;;;;;;5072136;28;20029;-84
2023/11/24 22:03:32;;;;;;;24.30;12.85;;;15.80;94.00;;;;;;5070382;28;20406;-83
2023/11/24 22:05:58;;;;;;;19.35;12.52;;;15.80;94.00;;;;;;5072184;28;20438;-83
2023/11/24 22:08:23;;;;;;;17.67;10.50;;;15.80;94.10;;;;;;5070743;28;20555;-83
2023/11/24 22:10:52;;;;;;;21.30;10.82;;;15.90;94.20;;;;;;5089254;28;20032;-84
2023/11/24 22:13:19;;;;;;;20.55;11.15;;;15.90;94.20;;;;;;5090860;28;20093;-83
2023/11/24 22:15:48;;;;;;;19.50;11.02;;;15.90;94.10;;;;;;5090712;28;20036;-84
2023/11/24 22:18:14;;;;;;;18.60;11.18;;;15.90;94.10;;;;;;5090817;28;20032;-84
2023/11/24 22:20:39;;;;;;;16.77;10.48;;;15.90;94.10;;;;;;5090181;28;20405;-80
2023/11/24 22:23:05;;;;;;;21.35;12.45;;;15.90;94.20;;;;;;5090577;28;20459;-83
2023/11/24 22:25:31;;;;;;;20.67;12.07;;;15.90;94.30;;;;;;5092271;28;20055;-83
2023/11/24 22:27:56;;;;;;;21.92;14.00;;;15.90;94.30;;;;;;5093945;28;20036;-82
2023/11/24 22:30:22;;;;;;;18.73;13.40;;;15.90;94.40;;;;;;5086652;28;20024;-82
2023/11/24 22:32:48;;;;;;;25.10;13.98;;;16.00;94.30;;;;;;5074572;28;20127;-82
2023/11/24 22:35:14;;;;;;;23.73;14.05;;;15.90;94.30;;;;;;5077004;28;20485;-83
2023/11/24 22:37:40;;;;;;;19.92;14.13;;;15.90;94.40;;;;;;5085076;28;20112;-81
2023/11/24 22:40:07;;;;;;;22.60;16.15;;;15.80;94.40;;;;;;5085083;28;20064;-83
2023/11/24 22:42:34;;;;;;;25.70;14.98;;;15.70;94.50;;;;;;5074502;28;20108;-82
2023/11/24 22:45:04;;;;;;;21.23;13.32;;;15.70;94.60;;;;;;5091014;28;20043;-81
2023/11/24 22:47:31;;;;;;;25.27;14.52;;;15.70;94.70;;;;;;5094062;28;20028;-80
2023/11/24 22:49:57;;;;;;;22.75;14.32;;;15.60;94.90;;;;;;5095592;28;20396;-80
2023/11/24 22:52:23;;;;;;;21.08;13.48;;;15.60;94.90;;;;;;5095234;28;20032;-80
2023/11/24 22:54:48;;;;;;;19.77;13.02;;;15.70;94.90;;;;;;5094999;28;20044;-80
2023/11/24 22:57:14;;;;;;;19.60;13.98;;;15.70;95.00;;;;;;5094764;28;20074;-81
2023/11/24 22:59:40;;;;;;;19.65;13.75;;;15.70;95.00;;;;;;5094044;28;20412;-82
2023/11/24 23:02:05;;;;;;;22.30;13.45;;;15.70;95.10;;;;;;5096607;28;20071;-81
2023/11/24 23:04:31;;;;;;;24.02;13.80;;;15.80;95.20;;;;;;5096373;28;20511;-82
2023/11/24 23:06:57;;;;;;;23.38;14.32;;;15.80;95.20;;;;;;5095497;28;20075;-82
2023/11/24 23:09:23;;;;;;;23.42;13.30;;;15.70;95.20;;;;;;5095390;28;20031;-79
2023/11/24 23:11:49;;;;;;;19.00;13.57;;;15.70;95.50;;;;;;5094933;28;20032;-81
2023/11/24 23:14:14;;;;;;;22.00;14.45;;;15.70;95.30;;;;;;5095058;28;20055;-81
2023/11/24 23:16:40;;;;;;;20.75;14.13;;;15.70;95.40;;;;;;5094953;28;20434;-82
2023/11/24 23:19:06;;;;;;;19.92;13.88;;;15.70;95.40;;;;;;5094291;28;20032;-82
2023/11/24 23:21:32;;;;;;;19.48;13.00;;;15.80;95.40;;;;;;5094312;28;20105;-81
2023/11/24 23:23:57;;;;;;;22.83;13.15;;;15.80;95.50;;;;;;5094749;28;20085;-82
2023/11/24 23:26:23;;;;;;;25.42;14.55;;;15.80;95.40;;;;;;5094425;28;20036;-81
2023/11/24 23:28:49;;;;;;;25.98;14.88;;;15.80;95.50;;;;;;5095370;28;20074;-81
2023/11/24 23:31:16;;;;;;;20.27;13.40;;;15.80;95.50;;;;;;5097702;28;20032;-78
2023/11/24 23:33:43;;;;;;;19.20;12.63;;;15.90;95.60;;;;;;5094243;28;20036;-80
2023/11/24 23:36:12;;;;;;;23.52;13.15;;;15.90;95.60;;;;;;5095174;28;20064;-77
2023/11/24 23:38:45;;;;;;;25.33;13.73;;;15.80;95.50;;;;;;5093985;28;20085;-77
2023/11/24 23:41:12;;;;;;;22.70;13.70;;;15.80;95.70;;;;;;5094290;28;20084;-79
2023/11/24 23:43:38;;;;;;;24.65;14.88;;;15.80;95.60;;;;;;5094338;28;20048;-80
2023/11/24 23:46:05;;;;;;;22.92;13.50;;;15.80;95.60;;;;;;5094683;28;20031;-80
2023/11/24 23:48:32;;;;;;;19.65;12.57;;;15.80;95.70;;;;;;5094665;28;20401;-78
2023/11/24 23:50:59;;;;;;;20.02;13.73;;;15.80;95.80;;;;;;5094338;28;20024;-78
2023/11/24 23:53:26;;;;;;;23.63;15.02;;;15.80;95.80;;;;;;5093802;28;20043;-79
2023/11/24 23:55:54;;;;;;;22.95;15.20;;;15.80;95.90;;;;;;5093553;28;20029;-78